Teton, Idaho
Current Conditions -  °F | °C
As of 7:53 AM on Thursday 23 Oct 2014 (Local Time) from KRXE Reporting Station
Few Clouds Few Clouds  
Wind Chill: 39°   Ceiling: Unl
Heat Index: 39°   Visibility: 10mi
Dew Point: 32°   Wind: 3mph
Humidity: 76%   Direction: 50°NE
Pressure: 30.1"   Gusts: NA
Location:  43.89°N, 111.68°W
Report Text: KRXE 231353Z AUTO 05003KT 10SM FEW120 04/00 A3010 RMK AO2 SLP194 T00390000
Loading
Personal Weather Stations






























Interactive Weather Map New forecast layout! Learn more

10-Day Weather Forecast

Advertisements
Track Severe Weather on mobile